Airfield :
LOGIN :

Register | Disclaimer

   EN    FR    IT 

 










Legend :    VFR   Marginal VFR   IFR   Intensive IFR   Very Intensive IFR
Visi :
Ceiling :
>= 8 km
>= 3000ft
5 to 8 km
1000 to 3000 ft
1500m to 5 km
500 to 1000 ft
800 to 1500m
200 to 500 ft
< 800m
< 200 ft
Symbols :   Thunderstorms  Fog  Heavy snow  Heavy precipitations  Wind > 20 kt
SIGMETs :     Misc.  Thunderstorms  Icing  Turbulence  Mountain Waves  Volcanic Ashes






- Airport Elevation : 1058 ft
- IATA code : SCN


EDDR - Saarbrücken

CURRENT METAR :
  • 150420Z 23015KT 9999 -RA FEW005 BKN012 09/08 Q0999

EXPIRED METARs :
  • 150350Z 25014KT 7000 -RA FEW003 SCT009 BKN025 09/09 Q1000 RERA
  • 150320Z 28010KT 3000 RA BR FEW003 BKN004 08/08 Q1000
  • 150250Z 20008KT 150V230 6000 RA FEW003 BKN005 08/08 Q0999
  • 150220Z 19008KT 9000 RA FEW003 BKN006 08/08 Q1000
  • 150150Z 21009KT 9000 -RA FEW005 BKN009 08/07 Q1000
  • 150120Z 20012KT 9999 -RA FEW007 SCT010 BKN045 08/07 Q1000

TAF TAF EDDR
Valid from the 15 at 00:00 until the 16 at 00:00 UTC


142300Z 1500/1524 21009KT 9999 BKN030
TEMPO 1500/1505 21015G25KT RA BKN009
BECMG 1503/1506 22015G25KT
TEMPO 1505/1513 24020G35KT SHRA BKN012 BKN020CB
BECMG 1512/1514 24010KT
BECMG 1517/1520 22005KT



MET'MAP, your aeronautical weather chart ! - Copyright ORBIFLY December 2007 - Disclaimer

ORBIFLY MET'MAP TEAM :

Programming & Development : Alexandra Zaïnal
Concept & original design : Baudouin d'Aumeries
Assistance for programming : Marc-Olivier Méhu
Technical & hardware support : Manuel Goepfert

Contact : metmap@orbifly.com




SOURCES & CREDITS :

   NOAA